Time;durP1;ratioP1;P1;durP2;ratioP2;P2;SDS_P1;SDS_P2;PMS_P1;PMS_P2;Temp;Humidity;BMP_temperature;BMP_pressure;BME280_temperature;BME280_humidity;BME280_pressure;Samples;Min_cycle;Max_cycle;Signal;HPM_P1;HPM_P2
2021/10/11 00:01:09;;;;;;;9.85;4.78;;;7.00;78.60;;;;;;4987933;28;20014;-90
2021/10/11 00:03:35;;;;;;;13.82;5.82;;;6.90;78.90;;;;;;4994295;28;20026;-92
2021/10/11 00:06:01;;;;;;;6.65;4.35;;;6.90;78.70;;;;;;4997899;28;20465;-90
2021/10/11 00:08:29;;;;;;;5.85;4.35;;;6.80;78.50;;;;;;4997379;28;20030;-90
2021/10/11 00:10:55;;;;;;;7.50;4.65;;;6.80;79.80;;;;;;4991941;28;20050;-90
2021/10/11 00:13:23;;;;;;;6.45;3.83;;;6.80;80.00;;;;;;4988107;28;20058;-90
2021/10/11 00:15:49;;;;;;;6.90;3.15;;;6.80;79.40;;;;;;4986806;28;20027;-90
2021/10/11 00:18:15;;;;;;;7.45;4.40;;;6.80;80.00;;;;;;4986625;28;20029;-90
2021/10/11 00:20:41;;;;;;;8.50;4.10;;;6.70;79.20;;;;;;4986501;28;20019;-90
2021/10/11 00:23:10;;;;;;;6.60;4.53;;;6.70;79.50;;;;;;4985889;28;20046;-90
2021/10/11 00:25:35;;;;;;;9.02;4.20;;;6.70;79.60;;;;;;4985688;28;20022;-90
2021/10/11 00:28:01;;;;;;;8.35;3.90;;;6.70;79.60;;;;;;4985556;28;20019;-91
2021/10/11 00:30:29;;;;;;;8.25;4.78;;;6.70;79.90;;;;;;4986308;28;20030;-91
2021/10/11 00:32:55;;;;;;;10.20;5.70;;;6.60;80.20;;;;;;4984413;28;20031;-90
2021/10/11 00:35:23;;;;;;;7.63;3.80;;;6.70;79.80;;;;;;4985009;28;20029;-90
2021/10/11 00:37:49;;;;;;;6.70;4.28;;;6.70;79.50;;;;;;4983907;28;20033;-92
2021/10/11 00:40:15;;;;;;;5.65;3.92;;;6.60;79.40;;;;;;4985210;28;20102;-90
2021/10/11 00:42:41;;;;;;;6.22;3.92;;;6.60;79.30;;;;;;4984999;28;20030;-90
2021/10/11 00:45:09;;;;;;;9.15;4.70;;;6.60;79.20;;;;;;4985978;28;20019;-90
2021/10/11 00:47:35;;;;;;;5.80;3.30;;;6.60;79.60;;;;;;4986540;28;20049;-90
2021/10/11 00:50:01;;;;;;;6.32;3.70;;;6.60;80.00;;;;;;4987215;28;20046;-91
2021/10/11 00:52:29;;;;;;;7.60;5.13;;;6.60;80.30;;;;;;4987884;28;20366;-90
2021/10/11 00:54:55;;;;;;;6.90;4.45;;;6.60;80.70;;;;;;4985901;28;20027;-91
2021/10/11 00:57:21;;;;;;;6.38;4.45;;;6.50;80.60;;;;;;4985580;28;20030;-90
2021/10/11 00:59:47;;;;;;;5.82;4.55;;;6.50;80.60;;;;;;4986464;28;20535;-91
2021/10/11 01:02:12;;;;;;;8.88;5.20;;;6.50;80.80;;;;;;4985234;28;20026;-90
2021/10/11 01:04:38;;;;;;;7.97;5.03;;;6.50;81.50;;;;;;4988048;28;20093;-90
2021/10/11 01:07:04;;;;;;;7.90;4.25;;;6.50;81.20;;;;;;4984658;28;20015;-90
2021/10/11 01:09:31;;;;;;;9.00;5.82;;;6.50;81.00;;;;;;4987126;28;20050;-90
2021/10/11 01:11:56;;;;;;;9.95;4.53;;;6.50;81.50;;;;;;4987286;28;20037;-89
2021/10/11 01:14:23;;;;;;;6.07;4.10;;;6.50;82.00;;;;;;4986148;28;20030;-89
2021/10/11 01:16:49;;;;;;;8.57;4.32;;;6.50;81.80;;;;;;4987718;28;20030;-89
2021/10/11 01:19:15;;;;;;;7.65;4.65;;;6.50;81.30;;;;;;4984522;28;20046;-90
2021/10/11 01:21:41;;;;;;;11.60;6.32;;;6.40;82.10;;;;;;4984155;28;20027;-89
2021/10/11 01:24:09;;;;;;;12.25;7.57;;;6.40;82.30;;;;;;4984728;28;20019;-89
2021/10/11 01:26:40;;;;;;;7.20;4.32;;;6.40;82.60;;;;;;4986416;28;20019;-89
2021/10/11 01:29:12;;;;;;;13.07;4.68;;;6.40;82.10;;;;;;4985022;28;20044;-89
2021/10/11 01:31:38;;;;;;;10.02;5.80;;;6.40;82.10;;;;;;4984833;28;20497;-90
2021/10/11 01:34:04;;;;;;;6.93;4.15;;;6.40;82.30;;;;;;4984731;28;20434;-89
2021/10/11 01:36:31;;;;;;;10.15;5.90;;;6.40;82.20;;;;;;4984558;28;20110;-89
2021/10/11 01:38:59;;;;;;;12.32;5.63;;;6.40;82.10;;;;;;4983164;28;20365;-90
2021/10/11 01:41:28;;;;;;;7.97;4.85;;;6.40;82.50;;;;;;4984213;28;20027;-89
2021/10/11 01:43:57;;;;;;;10.90;5.47;;;6.40;82.10;;;;;;4983267;28;20019;-89
2021/10/11 01:46:23;;;;;;;9.98;5.47;;;6.40;83.80;;;;;;4984513;28;20034;-89
2021/10/11 01:48:48;;;;;;;9.30;5.10;;;6.30;83.20;;;;;;4984544;28;20023;-89
2021/10/11 01:51:14;;;;;;;7.68;4.38;;;6.30;83.30;;;;;;4984942;28;20019;-90
2021/10/11 01:53:40;;;;;;;8.38;4.95;;;6.30;82.70;;;;;;4984881;28;20474;-90
2021/10/11 01:56:08;;;;;;;6.90;4.20;;;6.30;82.90;;;;;;4986348;28;20022;-89
2021/10/11 01:58:34;;;;;;;4.93;3.35;;;6.30;83.60;;;;;;4988636;28;20074;-90
2021/10/11 02:01:00;;;;;;;7.75;5.38;;;6.30;82.60;;;;;;4988316;28;20023;-90
2021/10/11 02:03:28;;;;;;;9.38;4.55;;;6.30;82.90;;;;;;4986083;28;20187;-90
2021/10/11 02:05:54;;;;;;;5.00;3.28;;;6.30;82.80;;;;;;4990175;28;20018;-90
2021/10/11 02:08:20;;;;;;;7.60;4.18;;;6.20;82.50;;;;;;4994081;28;20023;-90
2021/10/11 02:10:46;;;;;;;6.75;3.80;;;6.20;82.50;;;;;;4996226;28;20051;-92
2021/10/11 02:13:11;;;;;;;7.72;4.65;;;6.20;82.80;;;;;;4991079;28;20055;-91
2021/10/11 02:15:37;;;;;;;6.68;4.15;;;6.20;82.70;;;;;;4987595;28;20023;-91
2021/10/11 02:18:03;;;;;;;6.70;3.08;;;6.20;83.30;;;;;;4988375;28;20053;-90
2021/10/11 02:20:29;;;;;;;6.35;2.97;;;6.20;83.20;;;;;;4987862;28;20034;-90
2021/10/11 02:22:55;;;;;;;6.40;3.58;;;6.10;83.10;;;;;;4986212;28;20034;-91
2021/10/11 02:25:21;;;;;;;9.75;5.70;;;6.10;83.80;;;;;;4983793;28;20023;-90
2021/10/11 02:27:47;;;;;;;8.40;4.28;;;6.10;83.50;;;;;;4988639;28;20098;-90
2021/10/11 02:30:13;;;;;;;10.57;5.40;;;6.10;83.50;;;;;;4987607;28;20027;-90
2021/10/11 02:32:41;;;;;;;8.57;6.22;;;6.10;84.50;;;;;;4987121;28;20134;-90
2021/10/11 02:35:07;;;;;;;9.82;5.05;;;6.10;85.30;;;;;;4986629;28;20450;-91
2021/10/11 02:37:33;;;;;;;11.27;5.82;;;6.00;85.50;;;;;;4988885;28;20042;-91
2021/10/11 02:39:59;;;;;;;7.82;4.63;;;6.10;86.10;;;;;;4987765;28;20027;-91
2021/10/11 02:42:25;;;;;;;10.32;4.93;;;6.10;86.10;;;;;;4987567;28;20105;-90
2021/10/11 02:44:51;;;;;;;9.60;4.18;;;6.00;85.10;;;;;;4985202;28;20033;-90
2021/10/11 02:47:17;;;;;;;5.47;3.13;;;6.10;84.80;;;;;;4984495;28;20474;-91
2021/10/11 02:49:43;;;;;;;8.18;5.03;;;6.00;84.50;;;;;;4986616;28;20105;-90
2021/10/11 02:52:09;;;;;;;19.73;6.93;;;6.00;84.50;;;;;;4984120;28;20077;-90
2021/10/11 02:54:35;;;;;;;7.75;4.28;;;6.00;86.80;;;;;;4985240;28;20034;-91
2021/10/11 02:57:01;;;;;;;6.68;3.83;;;6.00;86.20;;;;;;4985022;28;20023;-91
2021/10/11 02:59:30;;;;;;;7.40;3.92;;;6.00;85.90;;;;;;4985631;28;20034;-90
2021/10/11 03:01:56;;;;;;;8.65;4.15;;;6.00;85.50;;;;;;4984121;28;20062;-90
2021/10/11 03:04:21;;;;;;;4.78;3.47;;;5.90;85.20;;;;;;4984316;28;20524;-90
2021/10/11 03:06:50;;;;;;;6.53;4.28;;;5.90;85.20;;;;;;4984876;28;20043;-91
2021/10/11 03:09:16;;;;;;;6.45;3.85;;;5.90;86.00;;;;;;4983707;28;20047;-91
2021/10/11 03:11:42;;;;;;;7.68;4.50;;;5.80;85.70;;;;;;4984409;28;20135;-90
2021/10/11 03:14:07;;;;;;;7.55;3.70;;;5.80;85.70;;;;;;4985647;28;20090;-91
2021/10/11 03:16:34;;;;;;;7.50;4.40;;;5.80;86.40;;;;;;4985335;28;20023;-91
2021/10/11 03:19:00;;;;;;;6.53;4.43;;;5.80;87.00;;;;;;4992183;28;20086;-91
2021/10/11 03:21:29;;;;;;;9.10;4.95;;;5.70;88.40;;;;;;4987411;28;20023;-91
2021/10/11 03:23:55;;;;;;;13.00;5.75;;;5.70;88.60;;;;;;4996060;28;20027;-91
2021/10/11 03:26:21;;;;;;;8.98;4.55;;;5.70;87.30;;;;;;4997413;28;20073;-91
2021/10/11 03:28:47;;;;;;;5.85;3.50;;;5.70;87.10;;;;;;4987743;28;20086;-90
2021/10/11 03:31:13;;;;;;;8.18;3.97;;;5.70;87.40;;;;;;4983093;28;20034;-91
2021/10/11 03:33:39;;;;;;;9.73;4.45;;;5.70;87.60;;;;;;4984283;28;20121;-91
2021/10/11 03:36:05;;;;;;;12.55;5.72;;;5.70;87.70;;;;;;4985730;28;20026;-91
2021/10/11 03:38:32;;;;;;;8.25;5.43;;;5.70;88.70;;;;;;4985642;28;20113;-91
2021/10/11 03:41:00;;;;;;;9.05;4.10;;;5.70;88.60;;;;;;4984543;28;20019;-91
2021/10/11 03:43:29;;;;;;;6.70;4.30;;;5.70;89.10;;;;;;4984301;28;20027;-90
2021/10/11 03:45:55;;;;;;;9.88;4.20;;;5.60;88.60;;;;;;4984185;28;20029;-92
2021/10/11 03:48:22;;;;;;;5.22;3.17;;;5.60;88.60;;;;;;4985736;28;20027;-90
2021/10/11 03:50:48;;;;;;;6.13;3.58;;;5.60;88.50;;;;;;4983849;28;20026;-91
2021/10/11 03:53:14;;;;;;;5.07;2.92;;;5.60;88.30;;;;;;4984403;28;20031;-92
2021/10/11 03:55:41;;;;;;;4.20;2.72;;;5.50;88.30;;;;;;4983532;28;20103;-91
2021/10/11 03:58:10;;;;;;;8.43;5.50;;;5.50;88.20;;;;;;4984907;28;20029;-90
2021/10/11 04:00:36;;;;;;;11.00;6.78;;;5.50;89.30;;;;;;4987851;28;20030;-91
2021/10/11 04:03:12;;;;;;;9.00;5.97;;;5.50;90.60;;;;;;4987844;28;20027;-91
2021/10/11 04:05:38;;;;;;;24.42;6.57;;;5.40;91.10;;;;;;4988880;28;20026;-91
2021/10/11 04:08:17;;;;;;;16.95;6.50;;;5.50;91.70;;;;;;4982995;28;20026;-91
2021/10/11 04:10:58;;;;;;;13.05;8.10;;;5.50;92.20;;;;;;4983426;28;20061;-91
2021/10/11 04:13:24;;;;;;;13.60;7.80;;;5.50;91.70;;;;;;4983266;28;20030;-90
2021/10/11 04:15:50;;;;;;;11.15;5.05;;;5.50;92.10;;;;;;4984277;28;20070;-90
2021/10/11 04:18:16;;;;;;;8.77;5.05;;;5.50;91.30;;;;;;4983608;28;20027;-90
2021/10/11 04:20:43;;;;;;;8.93;4.55;;;5.60;91.40;;;;;;4983558;28;20097;-90
2021/10/11 04:23:12;;;;;;;8.38;5.03;;;5.60;91.20;;;;;;4985321;28;20027;-90
2021/10/11 04:25:37;;;;;;;9.35;5.05;;;5.60;91.30;;;;;;4984057;28;20455;-91
2021/10/11 04:28:04;;;;;;;6.47;4.07;;;5.70;91.70;;;;;;4986774;28;20047;-91
2021/10/11 04:30:30;;;;;;;11.38;4.70;;;5.70;91.30;;;;;;4986310;28;20382;-91
2021/10/11 04:32:56;;;;;;;8.57;5.20;;;5.70;91.00;;;;;;4985447;28;20049;-91
2021/10/11 04:35:24;;;;;;;7.45;4.75;;;5.70;91.40;;;;;;4987275;28;20023;-91
2021/10/11 04:37:50;;;;;;;8.05;4.78;;;5.80;91.60;;;;;;4985138;28;20033;-91
2021/10/11 04:40:17;;;;;;;10.50;6.22;;;5.80;91.80;;;;;;4984700;28;20082;-91
2021/10/11 04:42:45;;;;;;;9.07;4.10;;;5.80;92.00;;;;;;4985604;28;20030;-91
2021/10/11 04:45:14;;;;;;;12.38;6.03;;;5.90;91.80;;;;;;4984958;28;20023;-91
2021/10/11 04:47:43;;;;;;;13.77;6.00;;;5.90;91.80;;;;;;4986370;28;20525;-91
2021/10/11 04:50:09;;;;;;;5.68;4.15;;;6.00;91.40;;;;;;4982188;28;20026;-90
2021/10/11 04:52:35;;;;;;;8.52;4.88;;;6.00;91.50;;;;;;4984272;28;20442;-92
2021/10/11 04:55:01;;;;;;;7.07;4.22;;;6.10;91.30;;;;;;4984342;28;20042;-91
2021/10/11 04:57:27;;;;;;;10.15;4.82;;;6.20;91.30;;;;;;4984187;28;20033;-91
2021/10/11 04:59:55;;;;;;;8.23;4.18;;;6.30;91.10;;;;;;4982441;28;20026;-90
2021/10/11 05:02:23;;;;;;;10.07;5.22;;;6.40;91.20;;;;;;4983940;28;20030;-92
2021/10/11 05:04:49;;;;;;;10.10;5.13;;;6.40;91.20;;;;;;4983904;28;20034;-90
2021/10/11 05:07:22;;;;;;;7.88;4.88;;;6.50;91.20;;;;;;4985145;28;20022;-90
2021/10/11 05:09:49;;;;;;;12.43;6.30;;;6.60;91.10;;;;;;4986946;28;20050;-91
2021/10/11 05:12:19;;;;;;;8.27;3.50;;;6.70;91.00;;;;;;4987082;28;20293;-91
2021/10/11 05:14:48;;;;;;;7.03;4.30;;;6.80;90.90;;;;;;4985248;28;20038;-92
2021/10/11 05:17:14;;;;;;;9.32;4.72;;;6.90;90.70;;;;;;4983217;28;20019;-92
2021/10/11 05:19:42;;;;;;;5.00;3.80;;;6.90;90.70;;;;;;4982509;28;20026;-92
2021/10/11 05:22:23;;;;;;;6.75;4.50;;;7.00;90.50;;;;;;4987020;28;20054;-92
2021/10/11 05:24:52;;;;;;;6.57;3.90;;;7.20;90.50;;;;;;5018173;28;20089;-90
2021/10/11 05:27:27;;;;;;;8.60;4.03;;;7.30;90.30;;;;;;5019910;28;20022;-90
2021/10/11 05:30:33;;;;;;;6.50;3.83;;;7.40;90.20;;;;;;5005105;28;20023;-90
2021/10/11 05:32:59;;;;;;;5.53;3.65;;;7.50;90.10;;;;;;5004673;28;20036;-90
2021/10/11 05:35:53;;;;;;;7.75;4.85;;;7.60;89.70;;;;;;5005433;28;20027;-90
2021/10/11 05:38:19;;;;;;;7.97;5.45;;;7.70;89.50;;;;;;5012063;28;20026;-90
2021/10/11 05:40:46;;;;;;;10.60;5.60;;;7.90;89.20;;;;;;5005157;28;20022;-90
2021/10/11 05:43:11;;;;;;;9.10;4.70;;;8.00;89.00;;;;;;5014601;28;20022;-89
2021/10/11 05:45:42;;;;;;;9.40;5.38;;;8.10;88.70;;;;;;5014113;28;20081;-89
2021/10/11 05:48:11;;;;;;;13.13;6.75;;;8.20;88.60;;;;;;5008888;28;20053;-90
2021/10/11 05:50:39;;;;;;;14.40;7.15;;;8.20;88.40;;;;;;4999844;28;20033;-91
2021/10/11 05:53:05;;;;;;;10.02;6.25;;;8.30;88.40;;;;;;5002178;28;20053;-91
2021/10/11 05:55:31;;;;;;;9.13;5.90;;;8.30;88.50;;;;;;5004497;28;20369;-91
2021/10/11 05:57:58;;;;;;;8.35;5.75;;;8.40;87.80;;;;;;4999800;28;20032;-90
2021/10/11 06:00:24;;;;;;;14.13;7.60;;;8.50;87.50;;;;;;5001250;28;20022;-90
2021/10/11 06:02:51;;;;;;;12.20;6.57;;;8.70;87.20;;;;;;4999096;28;20489;-90
2021/10/11 06:05:21;;;;;;;9.48;5.22;;;8.80;87.00;;;;;;4998967;28;20064;-91
2021/10/11 06:07:46;;;;;;;9.25;5.88;;;8.90;86.70;;;;;;5000371;28;20096;-90
2021/10/11 06:10:12;;;;;;;9.45;5.97;;;9.10;86.20;;;;;;5001868;28;20473;-90
2021/10/11 06:12:38;;;;;;;10.55;6.60;;;9.20;85.60;;;;;;5000287;28;20038;-89
2021/10/11 06:15:07;;;;;;;10.85;7.03;;;9.30;85.20;;;;;;5000728;28;20022;-90
2021/10/11 06:17:33;;;;;;;10.60;5.70;;;9.40;85.00;;;;;;5000354;28;20026;-90
2021/10/11 06:20:06;;;;;;;7.88;5.20;;;9.40;84.60;;;;;;4999082;28;20022;-91
2021/10/11 06:22:34;;;;;;;8.55;5.18;;;9.50;84.40;;;;;;5001223;28;20433;-90
2021/10/11 06:25:00;;;;;;;7.50;5.05;;;9.60;84.10;;;;;;5003605;28;20022;-90
2021/10/11 06:27:27;;;;;;;9.23;6.43;;;9.70;83.60;;;;;;4997538;28;20452;-90
2021/10/11 06:29:56;;;;;;;10.82;7.43;;;9.80;83.30;;;;;;5000647;28;20389;-91
2021/10/11 06:32:22;;;;;;;10.23;6.78;;;9.80;83.10;;;;;;5001379;28;20026;-91
2021/10/11 06:34:51;;;;;;;13.52;8.00;;;9.90;82.90;;;;;;5005985;28;20076;-90
2021/10/11 06:37:26;;;;;;;13.48;6.55;;;9.90;82.50;;;;;;5008891;28;20019;-91
2021/10/11 06:39:51;;;;;;;9.52;6.53;;;10.00;82.40;;;;;;5002453;28;20456;-91
2021/10/11 06:42:17;;;;;;;10.25;6.55;;;10.00;82.40;;;;;;5009603;28;20037;-93
2021/10/11 06:44:49;;;;;;;8.10;4.78;;;10.00;82.10;;;;;;5009053;28;20031;-90
2021/10/11 06:47:15;;;;;;;10.80;7.35;;;10.10;82.00;;;;;;5002121;28;20015;-90
2021/10/11 06:49:42;;;;;;;11.95;7.80;;;10.20;81.60;;;;;;5008677;28;20026;-90
2021/10/11 06:52:10;;;;;;;15.95;8.45;;;10.30;81.30;;;;;;5009210;28;20041;-92
2021/10/11 06:54:36;;;;;;;13.02;8.13;;;10.30;80.90;;;;;;5006752;28;20026;-90
2021/10/11 06:57:13;;;;;;;13.25;7.15;;;10.30;80.80;;;;;;5005949;28;20026;-91
2021/10/11 06:59:42;;;;;;;17.52;7.75;;;10.20;80.90;;;;;;5003703;28;20378;-90
2021/10/11 07:02:10;;;;;;;10.07;7.47;;;10.20;80.60;;;;;;4999930;28;20026;-91
2021/10/11 07:05:10;;;;;;;11.57;7.25;;;10.20;81.10;;;;;;4976598;28;20451;-92
2021/10/11 07:07:37;;;;;;;13.90;7.20;;;10.20;80.50;;;;;;4977685;28;20026;-91
2021/10/11 07:10:04;;;;;;;10.32;7.50;;;10.20;80.60;;;;;;4994976;28;20046;-90
2021/10/11 07:12:31;;;;;;;10.85;7.47;;;10.30;80.30;;;;;;4978287;28;20086;-90
2021/10/11 07:14:57;;;;;;;10.02;6.50;;;10.30;80.20;;;;;;4987358;28;20050;-90
2021/10/11 07:17:33;;;;;;;12.43;7.30;;;10.30;80.00;;;;;;4981725;28;20038;-90
2021/10/11 07:19:59;;;;;;;12.45;7.30;;;10.50;79.70;;;;;;4993858;28;20034;-91
2021/10/11 07:22:27;;;;;;;11.10;6.85;;;10.50;79.10;;;;;;4999861;28;20038;-90
2021/10/11 07:24:54;;;;;;;10.82;7.10;;;10.60;78.80;;;;;;4998336;28;20397;-90
2021/10/11 07:27:21;;;;;;;11.68;7.10;;;10.70;78.40;;;;;;4996199;28;20076;-88
2021/10/11 07:29:47;;;;;;;8.82;6.55;;;10.80;78.20;;;;;;4962642;28;20382;-91
2021/10/11 07:32:12;;;;;;;10.68;7.03;;;10.90;77.80;;;;;;4996744;28;20049;-91
2021/10/11 07:34:44;;;;;;;10.60;6.75;;;10.90;77.50;;;;;;4995311;28;20034;-91
2021/10/11 07:37:10;;;;;;;9.77;5.63;;;11.00;77.00;;;;;;4994564;28;20366;-91
2021/10/11 07:39:36;;;;;;;8.13;5.95;;;11.10;76.80;;;;;;4994561;28;20036;-89
2021/10/11 07:42:02;;;;;;;10.80;7.28;;;11.10;76.60;;;;;;4996380;28;20545;-90
2021/10/11 07:47:50;;;;;;;7.95;5.35;;;11.30;76.00;;;;;;4995667;28;20150;-90
2021/10/11 07:50:17;;;;;;;11.07;6.70;;;11.30;75.90;;;;;;4994046;28;20061;-89
2021/10/11 07:52:43;;;;;;;10.13;6.07;;;11.40;75.80;;;;;;4995115;28;20049;-89
2021/10/11 07:55:09;;;;;;;10.77;7.10;;;11.50;75.80;;;;;;5000038;28;20117;-89
2021/10/11 07:57:39;;;;;;;9.10;5.70;;;11.60;75.20;;;;;;5002608;28;20026;-92
2021/10/11 08:00:09;;;;;;;10.52;6.13;;;11.70;75.00;;;;;;4996119;28;20042;-90
2021/10/11 08:02:36;;;;;;;11.70;6.60;;;11.80;74.60;;;;;;4996511;28;20482;-91
2021/10/11 08:05:09;;;;;;;10.65;5.80;;;11.80;74.40;;;;;;4997048;28;20088;-92
2021/10/11 08:07:38;;;;;;;13.50;7.63;;;11.90;74.40;;;;;;4995274;28;20040;-88
2021/10/11 08:10:08;;;;;;;8.10;6.65;;;12.00;73.90;;;;;;4996914;28;20487;-89
2021/10/11 08:12:34;;;;;;;7.95;6.28;;;12.00;73.40;;;;;;4977838;28;20046;-89
2021/10/11 08:15:00;;;;;;;9.73;6.82;;;12.00;73.20;;;;;;4978010;28;20080;-89
2021/10/11 08:17:32;;;;;;;9.30;7.03;;;12.10;73.00;;;;;;4995214;28;20030;-90
2021/10/11 08:19:58;;;;;;;9.77;6.47;;;12.10;72.90;;;;;;4995079;28;20156;-89
2021/10/11 08:22:24;;;;;;;13.07;8.55;;;12.10;72.60;;;;;;4994203;28;20064;-90
2021/10/11 08:24:51;;;;;;;12.48;7.88;;;12.10;72.00;;;;;;4994488;28;20030;-90
2021/10/11 08:27:21;;;;;;;11.25;8.00;;;12.10;72.00;;;;;;4995488;28;20066;-91
2021/10/11 08:29:51;;;;;;;9.95;6.65;;;12.10;71.70;;;;;;4996826;28;20045;-91
2021/10/11 08:32:22;;;;;;;14.00;8.48;;;12.10;71.80;;;;;;4991693;28;20031;-89
2021/10/11 08:34:50;;;;;;;9.70;6.97;;;12.10;71.90;;;;;;4987554;28;20035;-90
2021/10/11 08:37:17;;;;;;;10.82;7.20;;;12.10;71.90;;;;;;4987631;28;20019;-90
2021/10/11 08:39:44;;;;;;;7.72;5.47;;;12.20;71.80;;;;;;4993221;28;20100;-90
2021/10/11 08:42:35;;;;;;;9.88;6.60;;;12.30;72.00;;;;;;4976572;28;20022;-92
2021/10/11 08:45:01;;;;;;;10.52;7.57;;;12.40;71.50;;;;;;4987801;28;20037;-90
2021/10/11 08:47:29;;;;;;;9.85;7.60;;;12.40;71.40;;;;;;4997257;28;20135;-93
2021/10/11 08:49:55;;;;;;;7.80;5.85;;;12.50;71.50;;;;;;4989055;28;20044;-91
2021/10/11 08:52:22;;;;;;;10.60;7.22;;;12.50;71.30;;;;;;4988684;28;20038;-92
2021/10/11 08:54:48;;;;;;;10.35;8.00;;;12.60;71.10;;;;;;4984512;28;20466;-90
2021/10/11 08:57:30;;;;;;;13.90;8.70;;;12.70;70.70;;;;;;4992509;28;20092;-91
2021/10/11 09:00:12;;;;;;;11.93;7.97;;;12.60;70.40;;;;;;4994665;28;20462;-90
2021/10/11 09:02:59;;;;;;;10.50;7.22;;;12.60;70.40;;;;;;4992820;28;20042;-90
2021/10/11 09:05:32;;;;;;;10.38;6.47;;;12.60;70.00;;;;;;4973121;28;20054;-90
2021/10/11 09:08:20;;;;;;;11.00;6.53;;;12.60;69.60;;;;;;4991819;28;20057;-91
2021/10/11 09:11:00;;;;;;;11.43;7.28;;;12.60;70.00;;;;;;4978824;28;20323;-91
2021/10/11 09:13:38;;;;;;;9.63;7.03;;;12.60;69.50;;;;;;4983508;28;20039;-89
2021/10/11 09:16:34;;;;;;;10.38;7.03;;;12.60;69.20;;;;;;4978828;28;20114;-90
2021/10/11 09:19:29;;;;;;;7.65;5.88;;;12.70;69.00;;;;;;4991671;28;20102;-90
2021/10/11 09:21:57;;;;;;;9.25;5.38;;;12.70;67.90;;;;;;4992723;28;20034;-89
2021/10/11 09:24:27;;;;;;;7.88;5.88;;;12.70;68.10;;;;;;4992892;28;20026;-91
2021/10/11 09:26:56;;;;;;;8.05;5.50;;;12.80;68.20;;;;;;4979357;28;20037;-91
2021/10/11 09:39:59;;;;;;;6.75;5.35;;;13.20;66.30;;;;;;4863181;29;20086;-93
2021/10/11 09:59:54;;;;;;;8.40;6.20;;;13.80;63.60;;;;;;4935427;29;20459;-93
2021/10/11 10:03:22;;;;;;;;;;;;;;;;;;;;;
2021/10/11 10:10:02;;;;;;;;;;;;;;;;;;;;;
2021/10/11 10:35:23;;;;;;;8.75;4.90;;;14.30;59.90;;;;;;4918786;29;20091;-91
2021/10/11 10:39:09;;;;;;;;;;;;;;;;;;;;;
2021/10/11 10:45:48;;;;;;;;;;;;;;;;;;;;;
2021/10/11 10:48:43;;;;;;;5.47;3.35;;;14.60;57.10;;;;;;4887686;29;20517;-92
2021/10/11 10:55:15;;;;;;;5.80;4.10;;;14.70;57.60;;;;;;4892095;29;20060;-92
2021/10/11 10:57:44;;;;;;;3.88;3.05;;;14.70;55.40;;;;;;4842800;29;20045;-91
2021/10/11 11:00:25;;;;;;;6.03;4.03;;;14.80;56.40;;;;;;4843041;29;20105;-92
2021/10/11 11:03:24;;;;;;;5.35;3.20;;;14.80;54.80;;;;;;4882139;29;20176;-92
2021/10/11 11:06:05;;;;;;;;;;;;;;;;;;;;;
2021/10/11 11:08:33;;;;;;;8.90;3.58;;;14.80;55.60;;;;;;4971512;29;20054;-90
2021/10/11 11:11:13;;;;;;;6.32;3.33;;;14.90;54.80;;;;;;4973076;28;20027;-91
2021/10/11 11:13:54;;;;;;;5.72;3.28;;;14.90;55.00;;;;;;4958984;28;20058;-91
2021/10/11 11:16:33;;;;;;;5.65;3.55;;;14.90;54.90;;;;;;4970462;28;20042;-91
2021/10/11 11:19:18;;;;;;;;;;;;;;;;;;;;;
2021/10/11 11:22:30;;;;;;;3.95;2.90;;;15.00;54.40;;;;;;4991019;28;20060;-92
2021/10/11 11:25:20;;;;;;;4.22;2.88;;;15.00;54.40;;;;;;4986545;28;20031;-93
2021/10/11 11:28:27;;;;;;;3.08;2.13;;;15.00;53.90;;;;;;4983057;28;20077;-92
2021/10/11 11:31:42;;;;;;;2.90;2.58;;;15.00;54.60;;;;;;5033411;28;20044;-93
2021/10/11 11:34:57;;;;;;;;;;;;;;;;;;;;;
2021/10/11 11:37:44;;;;;;;4.82;2.85;;;15.10;52.30;;;;;;4989817;28;20573;-93
2021/10/11 11:40:12;;;;;;;4.03;2.53;;;15.10;53.00;;;;;;4966878;28;20046;-92
2021/10/11 11:42:45;;;;;;;3.17;2.35;;;15.10;53.10;;;;;;4997071;28;20040;-92
2021/10/11 11:45:16;;;;;;;2.88;2.53;;;15.10;53.10;;;;;;5006504;28;20026;-90
2021/10/11 11:47:46;;;;;;;4.40;2.90;;;15.10;53.20;;;;;;5020431;28;20127;-93
2021/10/11 11:50:36;;;;;;;5.60;2.90;;;15.10;52.60;;;;;;5016947;28;20041;-92
2021/10/11 11:53:11;;;;;;;2.80;2.45;;;15.10;52.40;;;;;;4985054;28;20049;-91
2021/10/11 11:55:58;;;;;;;4.47;3.30;;;15.10;52.40;;;;;;4982775;28;20137;-92
2021/10/11 11:58:46;;;;;;;3.65;2.83;;;15.10;52.30;;;;;;5016516;28;20477;-92
2021/10/11 12:02:10;;;;;;;6.50;2.92;;;15.10;52.10;;;;;;4990760;28;20026;-91
2021/10/11 12:04:49;;;;;;;;;;;;;;;;;;;;;
2021/10/11 12:07:41;;;;;;;3.10;2.53;;;15.10;52.50;;;;;;5011215;28;20029;-92
2021/10/11 12:10:24;;;;;;;3.22;2.88;;;15.10;52.40;;;;;;5023755;28;20564;-92
2021/10/11 12:13:39;;;;;;;5.13;3.75;;;15.10;52.20;;;;;;5002779;28;20025;-91
2021/10/11 12:16:26;;;;;;;3.35;2.83;;;15.10;51.00;;;;;;4989263;28;20435;-92
2021/10/11 12:22:17;;;;;;;4.32;3.10;;;15.00;51.20;;;;;;4984633;28;20729;-92
2021/10/11 12:24:56;;;;;;;5.68;3.75;;;15.00;51.40;;;;;;5005669;28;20492;-92
2021/10/11 12:27:22;;;;;;;4.50;3.10;;;15.00;51.10;;;;;;5005291;28;20052;-93
2021/10/11 12:29:48;;;;;;;5.45;4.25;;;15.10;51.10;;;;;;4997926;28;20447;-91
2021/10/11 12:32:14;;;;;;;5.65;4.43;;;15.10;50.90;;;;;;4997702;28;20038;-91
2021/10/11 12:34:47;;;;;;;5.75;3.80;;;15.10;51.00;;;;;;5016972;28;20156;-92
2021/10/11 12:37:16;;;;;;;6.10;4.20;;;15.10;50.30;;;;;;5002650;28;20034;-91
2021/10/11 12:39:44;;;;;;;6.88;4.80;;;15.20;50.50;;;;;;4997939;28;20061;-93
2021/10/11 12:42:21;;;;;;;8.88;4.93;;;15.20;50.10;;;;;;4983485;28;20144;-93
2021/10/11 12:44:54;;;;;;;5.93;4.82;;;15.20;50.10;;;;;;5013705;28;20033;-93
2021/10/11 12:47:31;;;;;;;7.22;5.10;;;15.30;49.90;;;;;;5017504;28;20021;-92
2021/10/11 12:50:08;;;;;;;5.35;4.00;;;15.40;49.80;;;;;;5020691;28;20034;-92
2021/10/11 12:52:45;;;;;;;7.85;4.80;;;15.40;49.80;;;;;;4984261;28;20038;-93
2021/10/11 12:55:15;;;;;;;5.70;4.55;;;15.50;49.40;;;;;;5009183;28;20477;-92
2021/10/11 12:57:44;;;;;;;8.45;5.68;;;15.50;49.40;;;;;;5014697;28;20053;-93
2021/10/11 13:00:17;;;;;;;5.18;4.35;;;15.60;49.20;;;;;;4973057;28;20481;-92
2021/10/11 13:02:47;;;;;;;5.47;4.32;;;15.70;49.40;;;;;;5003904;28;20034;-92
2021/10/11 13:05:15;;;;;;;5.30;3.72;;;15.80;49.20;;;;;;4983142;28;20041;-93
2021/10/11 13:07:43;;;;;;;6.50;5.25;;;16.00;49.30;;;;;;5013510;28;20113;-92
2021/10/11 13:10:12;;;;;;;6.28;4.50;;;16.10;49.20;;;;;;4997131;28;20032;-93
2021/10/11 13:12:40;;;;;;;6.35;4.72;;;16.30;48.90;;;;;;4993556;28;20483;-92
2021/10/11 13:15:07;;;;;;;5.03;3.83;;;16.40;49.20;;;;;;5015470;28;20037;-91
2021/10/11 13:17:34;;;;;;;5.72;4.80;;;16.60;49.30;;;;;;5015879;28;20046;-92
2021/10/11 13:20:00;;;;;;;6.88;5.72;;;17.00;48.90;;;;;;4991210;28;20037;-92
2021/10/11 13:22:25;;;;;;;8.07;6.25;;;17.40;48.60;;;;;;4977637;28;20027;-92
2021/10/11 13:24:52;;;;;;;8.35;6.32;;;17.70;48.00;;;;;;4976886;28;20026;-91
2021/10/11 13:27:18;;;;;;;6.55;5.78;;;18.10;47.20;;;;;;5012595;28;20022;-93
2021/10/11 13:30:17;;;;;;;6.53;5.38;;;18.40;47.30;;;;;;4997009;28;20121;-92
2021/10/11 14:30:12;;;;;;;5.72;5.13;;;21.90;42.20;;;;;;5016687;28;20025;-91
2021/10/11 16:04:07;;;;;;;5.28;3.20;;;11.10;55.80;;;;;;5025094;28;20033;-92
2021/10/11 16:06:40;;;;;;;4.80;3.22;;;11.00;56.00;;;;;;4997211;28;20504;-92
2021/10/11 16:09:08;;;;;;;4.68;3.35;;;11.00;56.30;;;;;;4998897;28;20033;-91
2021/10/11 16:11:38;;;;;;;4.93;3.42;;;10.90;56.30;;;;;;4984126;28;20064;-91
2021/10/11 16:14:07;;;;;;;4.90;3.10;;;10.90;56.60;;;;;;4998836;28;20456;-91
2021/10/11 16:16:34;;;;;;;4.57;3.35;;;10.80;56.70;;;;;;4998681;28;20060;-91
2021/10/11 16:19:00;;;;;;;5.50;2.92;;;10.80;57.10;;;;;;4997513;28;20034;-92
2021/10/11 16:21:26;;;;;;;7.22;3.45;;;10.70;57.40;;;;;;4981555;28;20529;-92
2021/10/11 16:23:52;;;;;;;4.75;3.03;;;10.70;57.90;;;;;;4981047;28;20062;-92
2021/10/11 16:26:18;;;;;;;3.88;2.67;;;10.60;57.70;;;;;;5002619;28;20064;-92
2021/10/11 16:28:45;;;;;;;9.45;3.88;;;10.60;57.80;;;;;;4973311;28;20034;-92
2021/10/11 16:31:18;;;;;;;4.00;3.13;;;10.50;58.00;;;;;;4998935;28;20034;-92
2021/10/11 16:33:46;;;;;;;4.13;2.70;;;10.50;58.10;;;;;;4995601;28;20037;-90
2021/10/11 16:36:13;;;;;;;4.30;2.80;;;10.40;58.30;;;;;;5009398;28;20268;-91
2021/10/11 16:38:42;;;;;;;6.63;3.72;;;10.40;58.50;;;;;;4993167;28;20140;-92
2021/10/11 16:41:13;;;;;;;3.83;2.40;;;10.40;59.00;;;;;;5023702;28;20029;-93
2021/10/11 16:43:40;;;;;;;5.18;2.88;;;10.30;58.90;;;;;;4989813;28;20380;-92
2021/10/11 16:46:08;;;;;;;5.03;3.85;;;10.30;59.10;;;;;;5015666;28;20037;-92
2021/10/11 16:48:34;;;;;;;4.60;3.28;;;10.30;59.10;;;;;;4998879;28;20030;-91
2021/10/11 16:51:00;;;;;;;6.55;3.50;;;10.30;59.40;;;;;;4995737;28;20481;-91
2021/10/11 16:53:34;;;;;;;4.90;3.50;;;10.30;59.60;;;;;;4977763;28;20385;-91
2021/10/11 16:56:02;;;;;;;5.05;3.30;;;10.30;59.80;;;;;;4990694;28;20033;-92